Time;durP1;ratioP1;P1;durP2;ratioP2;P2;SDS_P1;SDS_P2;PMS_P1;PMS_P2;Temp;Humidity;BMP_temperature;BMP_pressure;BME280_temperature;BME280_humidity;BME280_pressure;Samples;Min_cycle;Max_cycle;Signal;HPM_P1;HPM_P2
2022/05/29 00:00:22;;;;;;;9.00;1.98;;;;;;;10.87;65.38;100934.78;5042876;28;20145;-66
2022/05/29 00:02:49;;;;;;;8.13;1.63;;;;;;;11.29;64.29;100928.28;5050524;28;20102;-66
2022/05/29 00:05:16;;;;;;;6.82;1.83;;;;;;;11.17;64.24;100925.38;5042951;28;20509;-66
2022/05/29 00:07:48;;;;;;;8.25;1.60;;;;;;;11.45;63.63;100919.56;5044158;28;20056;-67
2022/05/29 00:10:15;;;;;;;9.40;1.85;;;;;;;11.74;62.66;100914.56;5050967;28;20063;-66
2022/05/29 00:12:43;;;;;;;6.13;1.60;;;;;;;11.62;62.96;100913.41;5041207;28;20053;-66
2022/05/29 00:15:10;;;;;;;7.78;1.65;;;;;;;11.68;62.90;100916.53;5043607;28;20677;-66
2022/05/29 00:17:38;;;;;;;12.80;1.70;;;;;;;11.63;63.09;100901.97;5058359;28;20095;-66
2022/05/29 00:20:06;;;;;;;10.55;2.70;;;;;;;11.02;65.01;100907.78;5060210;28;20048;-66
2022/05/29 00:22:33;;;;;;;6.32;2.10;;;;;;;10.83;65.91;100919.31;5062097;28;20072;-66
2022/05/29 00:25:00;;;;;;;5.65;1.80;;;;;;;11.27;64.56;100919.66;5052306;28;20094;-66
2022/05/29 00:27:26;;;;;;;3.85;1.35;;;;;;;11.61;63.39;100904.66;5055091;28;20072;-66
2022/05/29 00:29:53;;;;;;;5.38;1.88;;;;;;;11.26;64.31;100913.56;5052152;28;20052;-66
2022/05/29 00:32:19;;;;;;;8.45;1.80;;;;;;;11.33;64.39;100893.94;5053314;28;21852;-67
2022/05/29 00:34:47;;;;;;;8.85;1.70;;;;;;;11.34;64.48;100893.03;5049451;28;20106;-66
2022/05/29 00:37:14;;;;;;;5.40;1.65;;;;;;;11.19;64.83;100905.16;5041869;28;20499;-66
2022/05/29 00:39:42;;;;;;;6.30;1.50;;;;;;;11.29;64.71;100892.41;5041412;28;20558;-66
2022/05/29 00:42:11;;;;;;;7.45;1.85;;;;;;;11.42;63.94;100895.25;5040607;28;20076;-66
2022/05/29 00:44:38;;;;;;;8.38;2.70;;;;;;;11.30;64.58;100893.25;5050085;28;20118;-66
2022/05/29 00:47:12;;;;;;;9.73;2.30;;;;;;;11.30;64.95;100890.63;5056832;28;20063;-66
2022/05/29 00:49:41;;;;;;;10.00;1.88;;;;;;;10.86;66.05;100885.03;5055997;28;20072;-66
2022/05/29 00:52:13;;;;;;;6.80;2.03;;;;;;;10.85;66.46;100884.19;5049129;28;20631;-66
2022/05/29 00:54:43;;;;;;;4.60;1.83;;;;;;;10.83;66.88;100882.56;5055769;28;20072;-67
2022/05/29 00:57:11;;;;;;;6.63;2.10;;;;;;;10.35;68.29;100883.22;5056785;28;20475;-66
2022/05/29 00:59:38;;;;;;;4.38;2.58;;;;;;;10.37;68.72;100882.22;5047642;28;20045;-66
2022/05/29 01:02:05;;;;;;;10.18;2.20;;;;;;;10.54;68.57;100877.00;5046532;28;20045;-66
2022/05/29 01:04:32;;;;;;;6.88;2.10;;;;;;;10.88;67.53;100864.81;5045217;28;20107;-66
2022/05/29 01:07:03;;;;;;;5.50;2.35;;;;;;;10.70;67.88;100856.09;5046506;28;20053;-66
2022/05/29 01:09:31;;;;;;;6.72;2.08;;;;;;;10.96;67.38;100862.66;5043883;28;20049;-66
2022/05/29 01:12:05;;;;;;;10.40;2.55;;;;;;;11.19;66.33;100857.91;5046342;28;20075;-66
2022/05/29 01:14:46;;;;;;;8.00;2.10;;;;;;;11.33;66.04;100846.69;5066319;28;20090;-66
2022/05/29 01:17:22;;;;;;;8.52;2.55;;;;;;;11.79;64.35;100845.06;5056896;28;20115;-66
2022/05/29 01:20:09;;;;;;;6.72;2.08;;;;;;;11.69;65.11;100847.31;5043530;28;20130;-66
2022/05/29 01:23:10;;;;;;;8.98;2.05;;;;;;;11.47;66.08;100849.41;5053729;28;20514;-66
2022/05/29 01:26:13;;;;;;;9.35;2.03;;;;;;;11.38;66.59;100852.53;5056449;28;20078;-67
2022/05/29 01:28:52;;;;;;;7.70;2.40;;;;;;;11.27;67.04;100844.38;5057182;28;20209;-67
2022/05/29 01:31:29;;;;;;;7.03;2.55;;;;;;;11.23;67.29;100835.81;5064553;28;20052;-67
2022/05/29 01:34:02;;;;;;;13.55;2.17;;;;;;;11.17;67.90;100845.78;5065760;28;20790;-66
2022/05/29 01:36:34;;;;;;;11.73;2.20;;;;;;;11.20;67.58;100841.22;5064533;28;20052;-67
2022/05/29 01:39:07;;;;;;;4.00;1.73;;;;;;;11.61;66.59;100839.00;5062967;28;20098;-67
2022/05/29 01:41:38;;;;;;;9.15;2.30;;;;;;;11.32;67.78;100837.09;5054134;28;20073;-67
2022/05/29 01:44:10;;;;;;;7.07;2.03;;;;;;;11.27;68.43;100841.75;5048571;28;20505;-67
2022/05/29 01:46:37;;;;;;;13.35;2.35;;;;;;;11.49;67.85;100836.22;5044451;28;20091;-66
2022/05/29 01:49:14;;;;;;;11.57;2.33;;;;;;;11.88;66.54;100831.44;5045050;28;20056;-67
2022/05/29 01:51:47;;;;;;;11.00;2.20;;;;;;;11.71;67.01;100829.72;5052691;28;20048;-66
2022/05/29 01:54:18;;;;;;;4.50;2.00;;;;;;;12.02;65.97;100830.66;5056892;28;20072;-67
2022/05/29 01:56:48;;;;;;;5.72;1.92;;;;;;;12.27;65.38;100830.97;5055216;28;20521;-67
2022/05/29 01:59:20;;;;;;;6.07;2.05;;;;;;;12.32;64.62;100839.44;5043277;28;20076;-67
2022/05/29 02:01:53;;;;;;;12.80;2.67;;;;;;;11.86;66.43;100828.03;5047792;28;20069;-66
2022/05/29 02:04:23;;;;;;;8.80;2.05;;;;;;;11.61;67.55;100827.66;5045621;28;20417;-66
2022/05/29 02:09:40;;;;;;;6.03;2.08;;;;;;;11.71;67.44;100813.16;5047346;28;20052;-75
2022/05/29 02:12:12;;;;;;;6.72;2.15;;;;;;;11.98;66.67;100814.22;5054701;28;20102;-75
2022/05/29 02:14:44;;;;;;;8.15;2.17;;;;;;;11.87;66.59;100810.50;5050382;28;20106;-75
2022/05/29 02:17:17;;;;;;;8.45;1.67;;;;;;;12.35;65.35;100817.38;5050541;28;20036;-75
2022/05/29 02:19:48;;;;;;;7.30;2.00;;;;;;;12.39;65.13;100813.63;5065171;28;20110;-75
2022/05/29 02:22:21;;;;;;;9.23;2.27;;;;;;;12.26;65.87;100816.16;5066771;28;20412;-75
2022/05/29 02:24:50;;;;;;;6.60;2.40;;;;;;;12.17;66.12;100814.03;5054136;28;20052;-74
2022/05/29 02:27:25;;;;;;;6.20;2.42;;;;;;;11.90;67.17;100805.09;5053373;28;20459;-74
2022/05/29 02:29:53;;;;;;;6.55;2.15;;;;;;;12.01;66.87;100813.22;5054151;28;20139;-74
2022/05/29 02:32:30;;;;;;;7.80;2.60;;;;;;;11.75;67.54;100801.50;5065605;28;20040;-74
2022/05/29 02:35:05;;;;;;;10.00;2.17;;;;;;;12.11;66.79;100804.72;5066229;28;20534;-74
2022/05/29 02:37:37;;;;;;;9.88;2.45;;;;;;;12.29;65.91;100805.44;5064750;28;20463;-74
2022/05/29 02:40:14;;;;;;;8.35;2.35;;;;;;;12.27;65.83;100809.09;5066663;28;20101;-75
2022/05/29 02:42:46;;;;;;;6.60;2.10;;;;;;;12.23;66.08;100805.81;5066820;28;20048;-74
2022/05/29 02:45:20;;;;;;;6.28;1.92;;;;;;;12.30;65.69;100814.19;5064891;28;20048;-74
2022/05/29 02:47:55;;;;;;;6.72;2.17;;;;;;;12.45;65.33;100803.59;5053613;28;20044;-74
2022/05/29 02:50:35;;;;;;;7.90;2.35;;;;;;;11.75;67.86;100814.63;5059093;28;20049;-74
2022/05/29 02:53:07;;;;;;;11.10;2.33;;;;;;;12.09;66.89;100798.69;5056212;28;20037;-74
2022/05/29 02:55:33;;;;;;;;;;;;;;;12.23;66.32;100807.59;5057682;28;20094;-74
2022/05/29 02:58:02;;;;;;;7.78;2.47;;;;;;;12.26;66.45;100805.63;5056711;28;19993;-74
2022/05/29 03:00:37;;;;;;;5.75;2.13;;;;;;;12.28;66.41;100814.25;5052474;28;20049;-74
2022/05/29 03:03:14;;;;;;;9.13;3.83;;;;;;;12.20;66.48;100803.31;5046657;28;20740;-75
2022/05/29 03:05:50;;;;;;;6.82;2.22;;;;;;;12.08;66.75;100804.88;5065933;28;20041;-74
2022/05/29 03:08:31;;;;;;;8.05;2.40;;;;;;;12.16;66.72;100807.91;5066007;28;20044;-74
2022/05/29 03:11:06;;;;;;;9.45;2.10;;;;;;;12.10;67.28;100807.44;5053357;28;20061;-74
2022/05/29 03:13:45;;;;;;;9.52;2.80;;;;;;;12.24;66.89;100798.75;5055821;28;20607;-75
2022/05/29 03:16:24;;;;;;;7.63;2.58;;;;;;;12.01;67.53;100800.91;5060818;28;20102;-74
2022/05/29 03:19:01;;;;;;;9.25;2.63;;;;;;;11.55;69.06;100794.72;5064527;28;20045;-75
2022/05/29 03:21:41;;;;;;;7.43;1.95;;;;;;;11.73;68.74;100798.13;5058210;28;20451;-74
2022/05/29 03:24:17;;;;;;;10.00;2.40;;;;;;;11.85;68.37;100796.59;5059695;28;20115;-74
2022/05/29 03:26:49;;;;;;;7.57;2.42;;;;;;;11.81;68.52;100795.94;5056619;28;20053;-72
2022/05/29 03:29:20;;;;;;;7.65;2.25;;;;;;;11.64;68.78;100794.19;5064212;28;20048;-72
2022/05/29 03:31:49;;;;;;;8.40;2.47;;;;;;;11.69;68.51;100796.56;5056473;28;20075;-67
2022/05/29 03:34:16;;;;;;;11.80;2.70;;;;;;;11.69;68.70;100797.41;5057624;28;20051;-67
2022/05/29 03:36:46;;;;;;;8.10;2.60;;;;;;;11.78;68.32;100797.88;5056491;28;20049;-66
2022/05/29 03:39:13;;;;;;;13.43;2.83;;;;;;;12.09;67.11;100796.06;5062916;28;20041;-66
2022/05/29 03:41:43;;;;;;;7.43;2.55;;;;;;;11.84;68.19;100794.91;5064557;28;20578;-66
2022/05/29 03:44:09;;;;;;;6.82;2.58;;;;;;;11.82;68.22;100795.00;5065748;28;20419;-66
2022/05/29 03:46:36;;;;;;;8.35;2.55;;;;;;;11.59;67.98;100791.00;5063352;28;20048;-67
2022/05/29 03:49:03;;;;;;;7.88;2.70;;;;;;;11.22;69.66;100794.75;5045365;28;20041;-67
2022/05/29 03:51:30;;;;;;;8.98;2.40;;;;;;;11.21;70.04;100787.81;5057208;28;20044;-67
2022/05/29 03:53:56;;;;;;;5.38;2.70;;;;;;;11.30;69.85;100791.72;5065739;28;20044;-67
2022/05/29 03:56:22;;;;;;;4.82;2.20;;;;;;;11.29;69.88;100790.03;5055104;28;20153;-67
2022/05/29 03:58:49;;;;;;;10.43;3.33;;;;;;;11.21;70.00;100789.59;5049757;28;20053;-67
2022/05/29 04:01:15;;;;;;;10.38;2.75;;;;;;;11.18;70.08;100780.09;5051308;28;20048;-67
2022/05/29 04:03:41;;;;;;;7.53;2.22;;;;;;;11.48;69.40;100784.63;5050999;28;20053;-67
2022/05/29 04:06:09;;;;;;;10.18;2.65;;;;;;;11.61;68.42;100788.25;5064292;28;20589;-66
2022/05/29 04:14:05;;;;;;;8.50;2.20;;;;;;;12.24;66.73;100777.72;5059428;28;20082;-67
2022/05/29 04:16:32;;;;;;;8.65;3.88;;;;;;;11.75;68.02;100769.16;5059681;28;20050;-67
2022/05/29 04:18:58;;;;;;;7.13;2.42;;;;;;;11.77;67.94;100773.38;5058808;28;20126;-67
2022/05/29 04:21:26;;;;;;;6.47;2.00;;;;;;;11.93;67.36;100768.97;5069541;28;20052;-67
2022/05/29 04:23:52;;;;;;;8.48;2.65;;;;;;;11.17;69.88;100769.69;5058813;28;20081;-68
2022/05/29 04:26:19;;;;;;;4.90;1.83;;;;;;;11.19;70.38;100763.44;5047503;28;20037;-67
2022/05/29 04:28:46;;;;;;;9.02;2.55;;;;;;;11.17;70.65;100767.91;5050308;28;20072;-67
2022/05/29 04:31:12;;;;;;;9.77;3.15;;;;;;;11.48;69.79;100771.50;5053704;28;20049;-67
2022/05/29 04:33:39;;;;;;;10.98;2.90;;;;;;;11.41;70.34;100764.88;5063199;28;20467;-67
2022/05/29 04:36:05;;;;;;;5.60;2.10;;;;;;;11.92;68.75;100769.06;5064573;28;20049;-67
2022/05/29 04:38:33;;;;;;;7.15;2.83;;;;;;;12.34;67.05;100773.63;5062805;28;20045;-67
2022/05/29 04:41:05;;;;;;;7.45;2.17;;;;;;;12.50;66.77;100766.53;5062502;28;20096;-67
2022/05/29 04:43:32;;;;;;;9.82;2.50;;;;;;;12.33;67.14;100766.66;5062721;28;20051;-67
2022/05/29 04:45:58;;;;;;;10.77;2.05;;;;;;;12.85;65.54;100764.44;5064385;28;20110;-67
2022/05/29 04:48:25;;;;;;;4.72;2.28;;;;;;;12.57;66.37;100768.69;5059843;28;20048;-67
2022/05/29 04:50:56;;;;;;;9.25;2.67;;;;;;;12.60;66.48;100771.13;5052315;28;20049;-67
2022/05/29 04:53:22;;;;;;;5.47;2.15;;;;;;;12.59;66.16;100768.63;5044889;28;20048;-67
2022/05/29 04:55:52;;;;;;;6.10;2.30;;;;;;;12.56;66.41;100764.38;5050262;28;20036;-67
2022/05/29 04:58:19;;;;;;;8.25;2.60;;;;;;;12.42;66.83;100766.97;5052209;28;20140;-67
2022/05/29 05:00:45;;;;;;;8.75;2.63;;;;;;;12.18;67.88;100769.25;5064577;28;20098;-67
2022/05/29 05:03:12;;;;;;;6.40;2.63;;;;;;;12.27;67.99;100767.03;5064511;28;20047;-67
2022/05/29 05:05:38;;;;;;;7.60;2.45;;;;;;;12.76;66.45;100772.84;5061970;28;20048;-67
2022/05/29 05:08:05;;;;;;;12.70;2.67;;;;;;;12.88;66.20;100765.09;5065318;28;20412;-67
2022/05/29 05:10:32;;;;;;;6.53;2.80;;;;;;;12.81;66.57;100769.03;5055694;28;20049;-67
2022/05/29 05:12:59;;;;;;;9.60;2.42;;;;;;;12.98;67.23;100763.56;5043195;28;20049;-67
2022/05/29 05:15:25;;;;;;;6.22;2.85;;;;;;;12.94;66.66;100761.22;5045111;28;20041;-67
2022/05/29 05:17:52;;;;;;;7.15;2.53;;;;;;;12.95;66.69;100761.13;5044931;28;20053;-67
2022/05/29 05:20:18;;;;;;;6.57;2.95;;;;;;;12.49;67.52;100762.22;5053364;28;20052;-67
2022/05/29 05:22:45;;;;;;;7.65;2.58;;;;;;;12.66;67.89;100748.91;5048064;28;20037;-67
2022/05/29 05:25:12;;;;;;;9.65;2.88;;;;;;;12.91;66.81;100756.16;5057295;28;20059;-67
2022/05/29 05:27:38;;;;;;;6.90;3.20;;;;;;;12.75;66.80;100755.41;5052107;28;20053;-67
2022/05/29 05:30:07;;;;;;;8.27;2.70;;;;;;;12.89;67.01;100756.25;5043939;28;20505;-67
2022/05/29 05:32:34;;;;;;;14.93;3.10;;;;;;;12.87;66.62;100758.13;5044130;28;20494;-67
2022/05/29 05:35:03;;;;;;;8.55;2.42;;;;;;;13.05;66.87;100756.13;5057199;28;20041;-72
2022/05/29 05:37:30;;;;;;;11.00;3.15;;;;;;;13.27;65.55;100761.81;5058138;28;20052;-72
2022/05/29 05:39:56;;;;;;;8.27;2.45;;;;;;;13.20;66.18;100760.50;5057980;28;20048;-73
2022/05/29 05:42:22;;;;;;;12.52;3.33;;;;;;;13.40;65.54;100756.63;5054090;28;20041;-73
2022/05/29 05:44:49;;;;;;;6.25;2.83;;;;;;;13.34;65.82;100763.09;5055521;28;20045;-72
2022/05/29 05:47:20;;;;;;;6.97;2.80;;;;;;;13.38;65.59;100756.72;5066503;28;20093;-72
2022/05/29 05:49:46;;;;;;;8.18;3.00;;;;;;;13.39;65.93;100760.19;5056991;28;20500;-72
2022/05/29 05:52:13;;;;;;;7.15;2.35;;;;;;;12.94;66.71;100758.59;5046972;28;20041;-72
2022/05/29 05:54:39;;;;;;;10.07;2.67;;;;;;;13.37;65.71;100765.56;5063398;28;20048;-72
2022/05/29 05:57:06;;;;;;;4.95;2.35;;;;;;;13.45;63.61;100763.28;5059206;28;20451;-73
2022/05/29 05:59:34;;;;;;;6.75;2.78;;;;;;;13.46;64.45;100757.06;5054502;28;20051;-72
2022/05/29 06:02:00;;;;;;;8.70;2.40;;;;;;;13.61;63.96;100761.38;5061839;28;20067;-72
2022/05/29 06:04:28;;;;;;;9.82;3.05;;;;;;;13.38;63.89;100758.50;5062538;28;20060;-72
2022/05/29 06:06:55;;;;;;;8.80;2.83;;;;;;;13.41;64.52;100755.69;5047136;28;20103;-72
2022/05/29 06:09:22;;;;;;;15.05;4.18;;;;;;;13.81;63.81;100752.19;5046435;28;20558;-72
2022/05/29 06:11:49;;;;;;;8.93;2.88;;;;;;;14.30;62.49;100755.06;5044878;28;20087;-73
2022/05/29 06:14:15;;;;;;;8.50;2.50;;;;;;;14.43;62.92;100749.88;5047123;28;20037;-74
2022/05/29 06:16:42;;;;;;;8.38;3.03;;;;;;;14.80;61.85;100753.47;5047623;28;20071;-72
2022/05/29 06:19:08;;;;;;;9.43;2.78;;;;;;;15.15;59.66;100751.84;5048164;28;20052;-72
2022/05/29 06:21:36;;;;;;;13.82;2.97;;;;;;;15.62;58.06;100745.03;5067150;28;20041;-73
2022/05/29 06:24:03;;;;;;;7.90;2.95;;;;;;;15.70;57.80;100747.97;5066472;28;20094;-73
2022/05/29 06:26:29;;;;;;;8.75;2.53;;;;;;;15.04;58.39;100749.97;5057264;28;20056;-73
2022/05/29 06:28:55;;;;;;;10.45;2.45;;;;;;;14.39;59.90;100758.94;5059927;28;20044;-73
2022/05/29 06:31:22;;;;;;;7.03;2.35;;;;;;;14.40;60.07;100747.44;5064978;28;20090;-74
2022/05/29 06:33:48;;;;;;;6.97;2.67;;;;;;;14.51;60.08;100748.41;5063904;28;20093;-74
2022/05/29 06:36:16;;;;;;;8.48;2.47;;;;;;;14.65;60.08;100744.81;5067210;28;20044;-72
2022/05/29 06:38:46;;;;;;;8.85;2.97;;;;;;;14.72;59.55;100751.38;5047590;28;20139;-74
2022/05/29 06:41:15;;;;;;;11.80;2.40;;;;;;;14.43;61.20;100755.13;5064645;28;20053;-74
2022/05/29 06:43:42;;;;;;;11.25;2.50;;;;;;;14.43;60.53;100750.72;5065313;28;20044;-74
2022/05/29 06:46:10;;;;;;;12.48;2.90;;;;;;;14.38;59.45;100762.50;5053454;28;20461;-74
2022/05/29 06:48:38;;;;;;;6.55;2.60;;;;;;;14.72;59.36;100746.09;5062523;28;20576;-74
2022/05/29 06:51:06;;;;;;;7.50;2.50;;;;;;;15.27;59.06;100737.78;5066077;28;20052;-74
2022/05/29 06:53:32;;;;;;;9.02;2.65;;;;;;;15.38;57.45;100735.22;5064440;28;20048;-74
2022/05/29 06:56:00;;;;;;;9.02;2.72;;;;;;;15.83;58.44;100743.47;5060017;28;20049;-75
2022/05/29 06:58:27;;;;;;;8.32;2.55;;;;;;;16.39;55.78;100742.72;5054495;28;20106;-74
2022/05/29 07:09:05;;;;;;;8.13;2.33;;;;;;;16.42;53.49;100749.59;5064699;28;20516;-73
2022/05/29 07:11:38;;;;;;;8.82;2.33;;;;;;;16.52;52.34;100751.41;5064519;28;20040;-74
2022/05/29 07:14:06;;;;;;;8.52;2.38;;;;;;;16.06;53.75;100748.75;5046162;28;20045;-73
2022/05/29 07:16:32;;;;;;;6.53;2.20;;;;;;;15.64;56.36;100751.03;5044250;28;20424;-72
2022/05/29 07:18:59;;;;;;;6.97;2.20;;;;;;;15.28;57.13;100751.84;5050649;28;20048;-72
2022/05/29 07:21:28;;;;;;;7.85;2.58;;;;;;;15.54;55.88;100749.06;5066095;28;20044;-72
2022/05/29 07:23:54;;;;;;;6.45;2.03;;;;;;;15.50;55.08;100744.09;5063948;28;20044;-72
2022/05/29 07:26:21;;;;;;;11.13;2.42;;;;;;;15.78;54.74;100749.06;5055477;28;20114;-72
2022/05/29 07:28:49;;;;;;;7.53;2.17;;;;;;;15.77;54.75;100746.56;5056329;28;20045;-73
2022/05/29 07:31:15;;;;;;;7.57;2.25;;;;;;;15.35;56.11;100742.53;5049017;28;20048;-73
2022/05/29 07:33:42;;;;;;;6.20;2.20;;;;;;;15.36;55.13;100755.66;5050851;28;20952;-73
2022/05/29 07:36:09;;;;;;;8.75;2.58;;;;;;;15.17;57.17;100746.47;5063201;28;20048;-72
2022/05/29 07:38:36;;;;;;;9.05;2.42;;;;;;;15.45;55.82;100754.13;5051702;28;20057;-73
2022/05/29 07:43:18;;;;;;;7.43;2.10;;;;;;;15.32;57.01;100748.88;5046133;28;20049;-73
2022/05/29 07:43:51;;;;;;;9.85;2.45;;;;;;;15.82;56.77;100747.91;5045141;28;20576;-73
2022/05/29 07:46:17;;;;;;;5.82;2.15;;;;;;;16.10;55.57;100740.59;5067065;28;20071;-73
2022/05/29 07:48:43;;;;;;;10.02;2.40;;;;;;;16.48;54.09;100743.84;5064782;28;20094;-73
2022/05/29 07:51:10;;;;;;;11.68;2.33;;;;;;;16.45;53.88;100741.41;5062540;28;20048;-73
2022/05/29 07:53:36;;;;;;;8.05;2.60;;;;;;;16.47;52.24;100748.28;5054496;28;20044;-73
2022/05/29 07:56:04;;;;;;;10.18;1.83;;;;;;;16.22;53.91;100745.78;5055061;28;20108;-73
2022/05/29 07:58:30;;;;;;;8.70;2.28;;;;;;;16.57;53.94;100752.91;5051623;28;20573;-73
2022/05/29 08:00:58;;;;;;;7.00;2.13;;;;;;;16.59;52.78;100753.66;5043264;28;20067;-73
2022/05/29 08:03:25;;;;;;;6.95;2.05;;;;;;;16.08;52.24;100751.25;5053879;28;20518;-73
2022/05/29 08:05:52;;;;;;;6.95;2.55;;;;;;;15.49;54.68;100753.81;5058810;28;20048;-73
2022/05/29 08:08:19;;;;;;;9.20;2.20;;;;;;;15.29;56.44;100756.19;5061593;28;20044;-73
2022/05/29 08:10:46;;;;;;;6.25;2.17;;;;;;;15.28;57.02;100759.78;5060154;28;20044;-73
2022/05/29 08:13:12;;;;;;;8.18;2.75;;;;;;;14.89;59.73;100760.78;5045483;28;20056;-73
2022/05/29 08:15:39;;;;;;;9.63;2.45;;;;;;;15.07;59.18;100757.69;5048530;28;20059;-73
2022/05/29 08:18:09;;;;;;;12.27;3.25;;;;;;;15.30;61.24;100763.97;5064485;28;20658;-73
2022/05/29 08:20:36;;;;;;;6.47;2.45;;;;;;;15.35;61.45;100756.59;5058599;28;20053;-74
2022/05/29 08:23:03;;;;;;;7.32;2.75;;;;;;;15.62;61.68;100750.31;5044436;28;20045;-74
2022/05/29 08:31:24;;;;;;;8.07;2.20;;;;;;;15.13;61.10;100748.50;5055446;28;20055;-74
2022/05/29 08:33:52;;;;;;;12.05;2.97;;;;;;;14.97;60.93;100756.63;5062911;28;20072;-74
2022/05/29 08:36:22;;;;;;;7.78;2.50;;;;;;;15.05;61.34;100753.47;5052152;28;20471;-74
2022/05/29 08:38:51;;;;;;;8.70;2.88;;;;;;;14.98;59.28;100754.84;5053555;28;20056;-74
2022/05/29 08:41:21;;;;;;;9.13;2.50;;;;;;;14.96;59.71;100754.13;5050909;28;20048;-74
2022/05/29 08:43:56;;;;;;;6.07;2.42;;;;;;;14.84;62.19;100750.53;5064171;28;20040;-74
2022/05/29 08:46:29;;;;;;;6.03;2.83;;;;;;;14.74;63.82;100754.75;5061084;28;20055;-74
2022/05/29 08:48:58;;;;;;;5.30;2.45;;;;;;;14.51;64.31;100758.09;5062769;28;20048;-74
2022/05/29 08:51:39;;;;;;;6.80;2.50;;;;;;;14.55;63.12;100757.81;5061195;28;20438;-74
2022/05/29 08:54:11;;;;;;;12.77;3.13;;;;;;;14.82;63.66;100751.59;5062765;28;20545;-74
2022/05/29 08:56:43;;;;;;;13.30;3.20;;;;;;;14.77;63.74;100751.91;5057317;28;20049;-74
2022/05/29 08:59:21;;;;;;;8.68;3.45;;;;;;;15.33;60.88;100741.81;5044734;28;20489;-74
2022/05/29 09:01:57;;;;;;;10.57;2.80;;;;;;;15.95;60.37;100743.41;5043234;28;20041;-73
2022/05/29 09:04:30;;;;;;;5.15;2.05;;;;;;;16.81;58.86;100743.09;5052560;28;20505;-73
2022/05/29 09:06:59;;;;;;;6.85;2.00;;;;;;;17.31;54.61;100741.75;5044896;28;20099;-73
2022/05/29 09:09:32;;;;;;;5.78;2.20;;;;;;;17.98;51.64;100740.66;5042966;28;20041;-73
2022/05/29 09:12:02;;;;;;;7.60;2.15;;;;;;;17.57;53.48;100739.69;5060053;28;20493;-74
2022/05/29 09:14:40;;;;;;;6.82;2.03;;;;;;;17.07;52.68;100746.34;5063849;28;20090;-73
2022/05/29 09:17:13;;;;;;;8.55;2.35;;;;;;;16.60;52.82;100744.72;5047929;28;20045;-73
2022/05/29 09:19:46;;;;;;;5.35;1.55;;;;;;;15.55;57.04;100758.69;5047574;28;20056;-74
2022/05/29 09:22:18;;;;;;;7.20;1.67;;;;;;;15.22;62.77;100758.44;5048278;28;20044;-75
2022/05/29 09:24:51;;;;;;;5.65;1.73;;;;;;;15.00;62.04;100755.59;5048339;28;20473;-75
2022/05/29 09:27:18;;;;;;;8.43;2.28;;;;;;;15.17;61.66;100757.88;5047610;28;20048;-75
2022/05/29 09:29:45;;;;;;;7.22;2.38;;;;;;;15.10;62.49;100759.28;5066296;28;20053;-75
2022/05/29 09:32:16;;;;;;;6.25;2.42;;;;;;;15.34;62.83;100754.88;5050868;28;20075;-75
2022/05/29 09:34:51;;;;;;;6.20;2.60;;;;;;;15.43;61.75;100756.88;5050797;28;20053;-74
2022/05/29 09:37:27;;;;;;;7.00;2.25;;;;;;;15.39;61.41;100758.06;5067743;28;20094;-73
2022/05/29 09:39:59;;;;;;;8.73;2.20;;;;;;;15.56;58.80;100747.16;5059517;28;20417;-74
2022/05/29 09:42:31;;;;;;;5.93;2.15;;;;;;;15.48;61.19;100754.75;5057000;28;20044;-73
2022/05/29 09:45:11;;;;;;;6.47;2.53;;;;;;;15.52;62.56;100750.16;5058719;28;20116;-70
2022/05/29 09:50:36;;;;;;;5.45;2.25;;;;;;;15.43;57.95;100745.47;5056703;28;20066;-70
2022/05/29 09:53:03;;;;;;;7.07;2.63;;;;;;;15.42;58.31;100738.50;5061626;28;20052;-70
2022/05/29 09:55:34;;;;;;;7.03;1.95;;;;;;;15.61;59.92;100740.69;5064531;28;20549;-69
2022/05/29 09:58:03;;;;;;;7.90;2.50;;;;;;;15.68;57.44;100741.94;5055526;28;20049;-70
2022/05/29 10:00:35;;;;;;;4.82;1.75;;;;;;;15.84;56.75;100742.50;5065876;28;20082;-70
2022/05/29 10:03:02;;;;;;;4.67;1.93;;;;;;;16.27;56.95;100738.34;5067164;28;20411;-70
2022/05/29 10:05:33;;;;;;;5.78;1.98;;;;;;;16.26;55.80;100739.31;5064425;28;20048;-70
2022/05/29 10:08:18;;;;;;;7.10;2.70;;;;;;;16.35;56.38;100735.97;5054061;28;20045;-70
2022/05/29 10:10:45;;;;;;;6.93;2.40;;;;;;;16.91;53.82;100730.81;5058842;28;20075;-70
2022/05/29 10:13:11;;;;;;;8.18;2.42;;;;;;;16.72;56.09;100726.09;5046815;28;20041;-70
2022/05/29 10:15:40;;;;;;;7.30;2.85;;;;;;;16.84;54.45;100729.59;5049759;28;20078;-70
2022/05/29 10:18:14;;;;;;;20.65;4.07;;;;;;;16.97;55.99;100723.22;5053621;28;20478;-70
2022/05/29 10:20:43;;;;;;;6.65;2.05;;;;;;;16.62;54.76;100722.47;5055805;28;20094;-69
2022/05/29 10:23:12;;;;;;;6.13;2.03;;;;;;;16.60;54.99;100723.53;5066507;28;20464;-69
2022/05/29 10:25:41;;;;;;;8.23;2.42;;;;;;;16.96;54.40;100731.31;5059160;28;21793;-69
2022/05/29 10:28:15;;;;;;;8.38;2.00;;;;;;;17.76;52.01;100727.47;5056792;28;20048;-69
2022/05/29 10:30:48;;;;;;;7.43;2.03;;;;;;;17.95;51.19;100721.50;5065662;28;20048;-69
2022/05/29 10:33:21;;;;;;;5.47;1.77;;;;;;;17.81;48.33;100727.94;5065488;28;20068;-69
2022/05/29 10:35:50;;;;;;;6.22;2.05;;;;;;;17.28;49.64;100732.25;5063626;28;20044;-69
2022/05/29 10:38:27;;;;;;;5.68;2.22;;;;;;;17.23;50.62;100726.47;5060618;28;20040;-69
2022/05/29 10:40:56;;;;;;;5.18;2.20;;;;;;;18.14;51.78;100719.03;5051949;28;20520;-69
2022/05/29 10:43:42;;;;;;;9.13;2.50;;;;;;;18.88;49.29;100714.47;5062055;28;20040;-69
2022/05/29 10:46:16;;;;;;;5.13;1.92;;;;;;;18.88;48.63;100717.13;5051824;28;20501;-69
2022/05/29 10:49:09;;;;;;;9.60;2.17;;;;;;;19.41;48.52;100707.09;5045166;28;20048;-69
2022/05/29 10:51:51;;;;;;;7.35;2.50;;;;;;;19.16;48.13;100713.75;5046447;28;20056;-70
2022/05/29 10:54:30;;;;;;;5.95;2.30;;;;;;;18.59;50.60;100713.50;5044445;28;20045;-69
2022/05/29 10:57:09;;;;;;;8.30;2.08;;;;;;;18.72;48.51;100709.66;5052543;28;20045;-70
2022/05/29 10:59:59;;;;;;;6.07;1.48;;;;;;;17.44;49.48;100710.66;5061111;28;20049;-70
2022/05/29 11:05:37;;;;;;;4.57;1.35;;;;;;;17.79;50.31;100724.56;5052475;28;20047;-70
2022/05/29 11:08:21;;;;;;;4.03;1.33;;;;;;;17.65;47.96;100718.72;5065829;28;20075;-70
2022/05/29 11:11:03;;;;;;;8.25;2.20;;;;;;;17.54;47.35;100714.25;5049658;28;20583;-69
2022/05/29 11:14:01;;;;;;;6.70;1.63;;;;;;;17.44;47.18;100708.84;5046702;28;20106;-69
2022/05/29 11:16:44;;;;;;;6.75;1.80;;;;;;;18.14;51.63;100705.75;5057831;28;20052;-69
2022/05/29 11:19:45;;;;;;;5.18;2.10;;;;;;;18.60;47.80;100693.91;5065618;28;20048;-70
2022/05/29 11:22:24;;;;;;;6.30;2.00;;;;;;;18.41;46.78;100695.44;5049748;28;20053;-69
2022/05/29 11:25:14;;;;;;;7.85;2.47;;;;;;;18.56;46.13;100688.03;5058006;28;20099;-70
2022/05/29 11:27:58;;;;;;;3.28;1.60;;;;;;;18.28;46.82;100689.50;5053934;28;20043;-69
2022/05/29 11:30:30;;;;;;;6.70;2.35;;;;;;;17.76;48.67;100700.13;5045630;28;20431;-69
2022/05/29 11:33:16;;;;;;;6.97;2.08;;;;;;;18.49;51.22;100687.69;5046619;28;20591;-69
2022/05/29 11:35:55;;;;;;;4.38;1.83;;;;;;;19.12;48.45;100685.75;5045167;28;20048;-69
2022/05/29 11:38:47;;;;;;;6.00;2.03;;;;;;;19.37;49.05;100684.41;5043426;28;20040;-69
2022/05/29 11:41:22;;;;;;;8.85;3.13;;;;;;;19.53;48.49;100681.25;5043766;28;20521;-69
2022/05/29 11:43:52;;;;;;;9.45;2.50;;;;;;;19.88;47.33;100677.06;5044374;28;20056;-69
2022/05/29 11:52:05;;;;;;;8.57;1.88;;;;;;;19.11;49.07;100677.91;5063629;28;20135;-69
2022/05/29 11:54:36;;;;;;;5.85;2.03;;;;;;;18.91;48.71;100682.31;5066646;28;20662;-69
2022/05/29 11:57:10;;;;;;;8.57;2.38;;;;;;;18.44;50.01;100670.44;5057764;28;20051;-69
2022/05/29 11:59:48;;;;;;;5.22;1.80;;;;;;;18.23;49.10;100678.41;5046864;28;20048;-68
2022/05/29 12:02:27;;;;;;;6.00;1.98;;;;;;;18.04;49.54;100672.97;5045220;28;20110;-68
2022/05/29 12:04:59;;;;;;;5.63;2.53;;;;;;;17.93;50.47;100678.34;5044424;28;20064;-68
2022/05/29 12:07:34;;;;;;;5.50;2.10;;;;;;;17.72;50.52;100674.81;5043790;28;20547;-69
2022/05/29 12:10:05;;;;;;;6.03;2.33;;;;;;;17.27;52.21;100680.22;5053048;28;20040;-69
2022/05/29 12:12:41;;;;;;;9.48;2.10;;;;;;;17.03;51.59;100675.03;5058255;28;20080;-69
2022/05/29 12:15:11;;;;;;;7.30;2.45;;;;;;;16.72;54.66;100672.28;5062654;28;20047;-69